Time;durP1;ratioP1;P1;durP2;ratioP2;P2;SDS_P1;SDS_P2;PMS_P1;PMS_P2;Temp;Humidity;BMP_temperature;BMP_pressure;BME280_temperature;BME280_humidity;BME280_pressure;Samples;Min_cycle;Max_cycle;Signal;HPM_P1;HPM_P2
2023/07/25 00:00:18;;;;;;;10.60;6.20;;;;;;;18.55;86.45;95528.35;108177;1279;22530;-75
2023/07/25 00:03:09;;;;;;;8.60;5.60;;;;;;;18.55;86.57;95542.92;108157;1274;25492;-75
2023/07/25 00:05:43;;;;;;;9.70;6.40;;;;;;;18.50;86.69;95548.52;108165;1272;22521;-75
2023/07/25 00:08:14;;;;;;;9.20;6.10;;;;;;;18.46;86.96;95539.92;108188;1279;25320;-75
2023/07/25 00:10:45;;;;;;;7.60;5.10;;;;;;;18.42;87.24;95538.92;108166;1272;22582;-75
2023/07/25 00:13:16;;;;;;;8.20;5.80;;;;;;;18.39;87.31;95535.36;108169;1279;25335;-75
2023/07/25 00:15:47;;;;;;;8.40;6.10;;;;;;;18.37;87.30;95540.61;108174;1279;23296;-75
2023/07/25 00:18:18;;;;;;;7.80;6.10;;;;;;;18.33;87.54;95548.50;108185;1272;23244;-75
2023/07/25 00:20:49;;;;;;;9.90;6.70;;;;;;;18.33;87.75;95550.57;108143;1279;22536;-75
2023/07/25 00:23:20;;;;;;;10.40;6.50;;;;;;;18.35;87.87;95555.27;108126;1271;22521;-75
2023/07/25 00:25:51;;;;;;;6.70;5.20;;;;;;;18.37;87.84;95556.46;108216;1279;22617;-75
2023/07/25 00:28:22;;;;;;;9.50;6.10;;;;;;;18.34;87.75;95556.48;108159;1279;22527;-76
2023/07/25 00:30:53;;;;;;;9.00;6.10;;;;;;;18.27;87.97;95555.19;108172;1279;22520;-75
2023/07/25 00:33:24;;;;;;;7.60;6.10;;;;;;;18.20;88.15;95556.20;108176;1279;22540;-75
2023/07/25 00:35:56;;;;;;;8.00;6.00;;;;;;;18.15;88.41;95556.87;108200;1271;22568;-75
2023/07/25 00:38:26;;;;;;;9.90;6.30;;;;;;;18.12;88.65;95553.50;108150;1272;22524;-75
2023/07/25 00:40:58;;;;;;;9.60;6.30;;;;;;;18.11;88.82;95551.42;108198;1279;22531;-75
2023/07/25 00:43:30;;;;;;;9.00;6.20;;;;;;;18.11;88.95;95543.44;108174;1272;22524;-75
2023/07/25 00:46:02;;;;;;;10.70;6.80;;;;;;;18.13;89.11;95546.16;108184;1279;22531;-75
2023/07/25 00:48:33;;;;;;;9.80;7.00;;;;;;;18.15;89.07;95546.89;108191;1279;22523;-75
2023/07/25 00:51:05;;;;;;;10.80;6.90;;;;;;;18.19;89.16;95542.01;108173;1271;22678;-75
2023/07/25 00:53:39;;;;;;;8.80;6.20;;;;;;;18.21;89.11;95541.98;108149;1279;22534;-75
2023/07/25 00:56:13;;;;;;;11.00;7.00;;;;;;;18.20;89.03;95538.26;108153;1279;25295;-75
2023/07/25 00:58:47;;;;;;;11.10;6.70;;;;;;;18.12;88.94;95539.94;108198;1279;22576;-75
2023/07/25 01:01:18;;;;;;;8.00;6.10;;;;;;;18.04;89.13;95532.28;108222;1279;22564;-76
2023/07/25 01:03:50;;;;;;;8.40;6.30;;;;;;;17.98;89.55;95530.38;108151;1272;22522;-75
2023/07/25 01:06:21;;;;;;;9.70;6.80;;;;;;;17.94;89.88;95532.37;108182;1279;22539;-75
2023/07/25 01:08:54;;;;;;;9.50;6.70;;;;;;;17.93;90.13;95534.02;108190;1278;25390;-75
2023/07/25 01:11:27;;;;;;;10.50;6.60;;;;;;;17.93;90.40;95535.11;108166;1279;22525;-75
2023/07/25 01:14:01;;;;;;;10.60;6.80;;;;;;;17.93;90.45;95537.25;108149;1279;22524;-75
2023/07/25 01:16:33;;;;;;;9.80;7.00;;;;;;;17.96;90.57;95532.10;108197;1279;22650;-75
2023/07/25 01:19:08;;;;;;;11.00;7.60;;;;;;;17.99;90.71;95535.22;108190;1271;24256;-75
2023/07/25 01:21:39;;;;;;;11.10;7.00;;;;;;;18.00;90.73;95537.45;108329;1279;22537;-75
2023/07/25 01:24:12;;;;;;;10.80;7.20;;;;;;;18.04;90.84;95536.18;108213;1278;22534;-75
2023/07/25 01:26:43;;;;;;;8.90;6.70;;;;;;;18.08;90.87;95541.92;108215;1279;22524;-75
2023/07/25 01:29:15;;;;;;;10.00;7.70;;;;;;;18.10;90.80;95546.80;108226;1271;22537;-75
2023/07/25 01:31:46;;;;;;;10.40;7.40;;;;;;;18.11;90.84;95545.82;108211;1279;23770;-75
2023/07/25 01:34:17;;;;;;;9.70;6.90;;;;;;;18.11;90.81;95543.30;108190;1271;22575;-75
2023/07/25 01:36:48;;;;;;;8.10;6.10;;;;;;;18.09;90.90;95544.34;108213;1279;24426;-75
2023/07/25 01:39:19;;;;;;;8.70;6.60;;;;;;;18.05;90.75;95548.70;108212;1279;22538;-75
2023/07/25 01:41:50;;;;;;;10.50;7.50;;;;;;;18.00;90.81;95547.34;108197;1279;22539;-75
2023/07/25 01:44:21;;;;;;;10.30;7.10;;;;;;;17.93;91.02;95553.88;108167;1279;22575;-75
2023/07/25 01:46:52;;;;;;;9.40;7.10;;;;;;;17.90;91.30;95550.90;108177;1272;22531;-75
2023/07/25 01:49:25;;;;;;;11.30;7.10;;;;;;;17.88;91.28;95562.27;108200;1279;22514;-75
2023/07/25 01:51:56;;;;;;;10.20;7.30;;;;;;;17.89;91.44;95558.63;108171;1271;22648;-75
2023/07/25 01:54:27;;;;;;;9.90;7.20;;;;;;;17.92;91.55;95556.23;108182;1279;25180;-75
2023/07/25 01:57:00;;;;;;;10.30;7.70;;;;;;;17.95;91.47;95555.75;108116;1272;22524;-75
2023/07/25 01:59:31;;;;;;;11.10;8.30;;;;;;;17.96;91.34;95553.63;108228;1279;23805;-75
2023/07/25 02:02:02;;;;;;;10.90;7.30;;;;;;;17.96;91.50;95560.67;108222;1271;22975;-75
2023/07/25 02:04:34;;;;;;;9.20;7.30;;;;;;;17.98;91.45;95559.11;108216;1272;22528;-75
2023/07/25 02:07:06;;;;;;;11.60;7.20;;;;;;;18.00;91.45;95558.99;108209;1279;22585;-75
2023/07/25 02:09:38;;;;;;;9.80;6.80;;;;;;;17.96;90.91;95558.98;108259;1279;22624;-75
2023/07/25 02:12:12;;;;;;;10.30;7.00;;;;;;;17.83;90.74;95559.55;108174;1277;22575;-75
2023/07/25 02:14:43;;;;;;;11.00;7.30;;;;;;;17.79;90.92;95563.38;108214;1279;22528;-75
2023/07/25 02:17:19;;;;;;;9.10;7.30;;;;;;;17.78;91.28;95564.13;108211;1279;22515;-75
2023/07/25 02:19:52;;;;;;;11.20;7.50;;;;;;;17.80;91.32;95564.70;108202;1279;22527;-75
2023/07/25 02:22:24;;;;;;;9.20;7.00;;;;;;;17.80;91.54;95577.26;108206;1279;22576;-76
2023/07/25 02:24:56;;;;;;;12.90;7.60;;;;;;;17.84;91.75;95576.26;108203;1277;25243;-76
2023/07/25 02:27:29;;;;;;;10.30;7.30;;;;;;;17.88;91.81;95570.25;108203;1279;22543;-76
2023/07/25 02:30:00;;;;;;;14.90;7.90;;;;;;;17.92;91.86;95569.63;108224;1279;22520;-76
2023/07/25 02:32:30;;;;;;;10.50;6.90;;;;;;;17.91;91.94;95576.83;108226;1279;22524;-76
2023/07/25 02:35:01;;;;;;;10.80;7.30;;;;;;;17.91;91.80;95573.38;108242;1279;22579;-76
2023/07/25 02:37:38;;;;;;;9.90;7.70;;;;;;;17.90;92.04;95567.91;108231;1280;22532;-77
2023/07/25 02:40:14;;;;;;;10.60;7.40;;;;;;;17.91;92.21;95569.09;108220;1271;25407;-77
2023/07/25 02:42:45;;;;;;;10.10;7.70;;;;;;;17.95;92.15;95575.06;108209;1271;22552;-75
2023/07/25 02:45:16;;;;;;;11.40;7.80;;;;;;;17.99;92.12;95580.67;108431;1271;22517;-76
2023/07/25 02:47:50;;;;;;;9.80;7.10;;;;;;;18.03;92.05;95577.02;108351;1279;22524;-76
2023/07/25 02:50:21;;;;;;;10.50;7.20;;;;;;;18.06;91.79;95584.95;108343;1276;22533;-76
2023/07/25 02:52:52;;;;;;;9.70;6.80;;;;;;;18.11;91.75;95583.38;108350;1279;22542;-76
2023/07/25 02:55:23;;;;;;;9.30;7.10;;;;;;;18.15;91.56;95585.38;108304;1279;22528;-76
2023/07/25 02:57:54;;;;;;;8.40;6.70;;;;;;;18.20;91.45;95588.86;108316;1272;22531;-76
2023/07/25 03:00:25;;;;;;;10.20;7.30;;;;;;;18.24;91.16;95594.30;108332;1279;22604;-76
2023/07/25 03:02:56;;;;;;;9.50;7.10;;;;;;;18.30;90.93;95587.84;108276;1277;22852;-77
2023/07/25 03:05:30;;;;;;;9.70;7.40;;;;;;;18.35;90.71;95585.34;108243;1276;22529;-76
2023/07/25 03:08:01;;;;;;;11.40;7.00;;;;;;;18.37;90.52;95586.52;108258;1279;24292;-76
2023/07/25 03:10:32;;;;;;;10.30;7.10;;;;;;;18.36;90.15;95588.19;108249;1279;23805;-76
2023/07/25 03:13:03;;;;;;;10.40;6.80;;;;;;;18.31;89.94;95586.50;108170;1279;24450;-76
2023/07/25 03:15:36;;;;;;;11.80;7.30;;;;;;;18.27;89.83;95590.14;108207;1272;25232;-76
2023/07/25 03:18:08;;;;;;;9.60;6.50;;;;;;;18.24;89.52;95593.38;108194;1279;22549;-74
2023/07/25 03:20:39;;;;;;;10.40;6.90;;;;;;;18.13;89.32;95590.98;108216;1272;22531;-74
2023/07/25 03:23:11;;;;;;;9.50;7.30;;;;;;;18.07;89.49;95592.58;108242;1272;25463;-76
2023/07/25 03:25:44;;;;;;;11.50;6.90;;;;;;;18.00;89.42;95588.20;108237;1272;22514;-76
2023/07/25 03:28:16;;;;;;;9.60;7.30;;;;;;;17.96;89.34;95588.88;108228;1279;22521;-76
2023/07/25 03:30:46;;;;;;;9.80;7.10;;;;;;;17.79;89.18;95587.80;108233;1272;22584;-76
2023/07/25 03:33:17;;;;;;;10.50;7.10;;;;;;;17.66;89.69;95580.91;108226;1279;24824;-76
2023/07/25 03:35:48;;;;;;;10.10;6.70;;;;;;;17.60;90.07;95579.69;108196;1279;22540;-76
2023/07/25 03:38:21;;;;;;;11.20;7.20;;;;;;;17.56;90.34;95578.75;108210;1272;22530;-76
2023/07/25 03:40:52;;;;;;;10.10;6.60;;;;;;;17.57;90.77;95565.77;108234;1279;25298;-76
2023/07/25 03:43:24;;;;;;;11.60;7.50;;;;;;;17.64;90.99;95567.69;108194;1279;24285;-75
2023/07/25 03:45:58;;;;;;;9.80;7.20;;;;;;;17.71;91.01;95565.41;108229;1279;22524;-76
2023/07/25 03:48:29;;;;;;;10.20;6.90;;;;;;;17.76;90.97;95576.96;108179;1279;22619;-76
2023/07/25 03:51:00;;;;;;;11.20;7.00;;;;;;;17.81;90.81;95577.27;108211;1279;22587;-76
2023/07/25 03:53:31;;;;;;;11.70;8.60;;;;;;;17.87;90.82;95574.49;108212;1279;22576;-76
2023/07/25 03:56:03;;;;;;;12.10;7.80;;;;;;;17.96;90.86;95571.63;108225;1272;22524;-76
2023/07/25 03:58:35;;;;;;;8.60;6.70;;;;;;;18.06;90.91;95568.64;108218;1279;24471;-75
2023/07/25 04:01:08;;;;;;;7.70;6.00;;;;;;;18.16;90.89;95567.08;108245;1272;22523;-76
2023/07/25 04:03:39;;;;;;;7.80;6.20;;;;;;;18.23;90.84;95569.98;108196;1279;22556;-76
2023/07/25 04:06:12;;;;;;;11.30;6.60;;;;;;;18.31;90.82;95574.52;108200;1272;22528;-76
2023/07/25 04:08:43;;;;;;;9.90;7.50;;;;;;;18.37;90.69;95568.58;108260;1279;22529;-76
2023/07/25 04:11:14;;;;;;;12.10;7.50;;;;;;;18.45;90.58;95572.95;108226;1273;23884;-76
2023/07/25 04:13:45;;;;;;;8.20;6.40;;;;;;;18.46;90.33;95573.29;108202;1278;24276;-75
2023/07/25 04:16:16;;;;;;;8.90;6.60;;;;;;;18.48;89.93;95567.19;108220;1272;22534;-76
2023/07/25 04:18:47;;;;;;;11.40;7.30;;;;;;;18.49;90.02;95568.44;108208;1279;25530;-76
2023/07/25 04:21:23;;;;;;;9.30;6.40;;;;;;;18.53;89.90;95567.42;108196;1272;22520;-76
2023/07/25 04:23:54;;;;;;;9.50;6.60;;;;;;;18.57;89.69;95570.18;108195;1279;25345;-76
2023/07/25 04:26:25;;;;;;;8.70;6.40;;;;;;;18.66;89.79;95572.62;108232;1272;22527;-76
2023/07/25 04:28:56;;;;;;;8.90;6.00;;;;;;;18.78;90.03;95572.38;108191;1272;22578;-76
2023/07/25 04:31:26;;;;;;;9.40;7.00;;;;;;;18.88;89.86;95569.11;108231;1279;23609;-76
2023/07/25 04:33:57;;;;;;;9.50;6.50;;;;;;;18.96;89.97;95558.96;108217;1279;24252;-76
2023/07/25 04:36:29;;;;;;;8.00;6.00;;;;;;;19.03;89.85;95559.02;108260;1277;22734;-76
2023/07/25 04:39:00;;;;;;;8.50;6.30;;;;;;;19.03;89.00;95566.16;108167;1272;23825;-76
2023/07/25 04:41:31;;;;;;;9.10;6.80;;;;;;;19.09;89.09;95565.79;108223;1279;22539;-76
2023/07/25 04:44:02;;;;;;;10.40;7.20;;;;;;;19.15;88.75;95561.85;108198;1272;22536;-76
2023/07/25 04:46:33;;;;;;;8.70;6.80;;;;;;;19.16;88.23;95567.84;108068;1271;211729;-76
2023/07/25 04:49:05;;;;;;;10.00;6.50;;;;;;;19.21;88.35;95573.84;108214;1279;24205;-76
2023/07/25 04:51:39;;;;;;;10.40;6.10;;;;;;;19.31;88.06;95579.39;108221;1279;22487;-76
2023/07/25 04:54:10;;;;;;;9.40;6.60;;;;;;;19.35;87.63;95573.36;108172;1279;22658;-76
2023/07/25 04:56:41;;;;;;;8.20;6.30;;;;;;;19.30;87.48;95572.69;108259;1279;25252;-76
2023/07/25 04:59:12;;;;;;;11.80;6.90;;;;;;;19.30;87.65;95578.98;108231;1272;22522;-76
2023/07/25 05:01:43;;;;;;;9.00;6.40;;;;;;;19.35;87.50;95576.13;108361;1279;23165;-76
2023/07/25 05:04:14;;;;;;;9.60;6.50;;;;;;;19.40;87.41;95575.73;108274;1272;24236;-76
2023/07/25 05:06:45;;;;;;;9.30;6.60;;;;;;;19.46;87.25;95573.33;108334;1277;22540;-76
2023/07/25 05:09:18;;;;;;;8.60;6.10;;;;;;;19.59;87.37;95571.02;108247;1272;22545;-76
2023/07/25 05:11:51;;;;;;;9.20;6.20;;;;;;;19.72;86.90;95574.20;108252;1276;22525;-76
2023/07/25 05:14:23;;;;;;;10.10;6.80;;;;;;;19.79;86.67;95582.23;108208;1271;22991;-76
2023/07/25 05:16:54;;;;;;;10.20;6.20;;;;;;;19.86;86.53;95584.79;108254;1277;22523;-76
2023/07/25 05:19:26;;;;;;;9.20;6.40;;;;;;;19.91;86.12;95583.38;108183;1279;22508;-76
2023/07/25 05:22:00;;;;;;;8.20;5.90;;;;;;;19.89;85.71;95575.84;108290;1279;22599;-76
2023/07/25 05:24:32;;;;;;;8.50;6.50;;;;;;;19.79;85.22;95576.52;108202;1256;22609;-76
2023/07/25 05:27:03;;;;;;;7.80;6.40;;;;;;;19.66;84.96;95576.18;108278;1279;25425;-76
2023/07/25 05:29:35;;;;;;;9.30;7.50;;;;;;;19.55;85.28;95573.09;108241;1272;22640;-76
2023/07/25 05:32:10;;;;;;;10.70;6.50;;;;;;;19.50;85.51;95570.77;108206;1272;22540;-76
2023/07/25 05:34:41;;;;;;;8.60;6.10;;;;;;;19.50;85.79;95562.16;108268;1279;25298;-76
2023/07/25 05:37:12;;;;;;;9.20;6.40;;;;;;;19.47;86.20;95562.05;108179;1272;22546;-76
2023/07/25 05:39:43;;;;;;;7.70;6.30;;;;;;;19.38;86.22;95563.89;108247;1269;25263;-76
2023/07/25 05:42:14;;;;;;;9.70;6.30;;;;;;;19.31;86.41;95561.17;108213;1279;22636;-76
2023/07/25 05:44:48;;;;;;;10.20;6.40;;;;;;;19.25;86.49;95564.61;108242;1279;22528;-76
2023/07/25 05:47:19;;;;;;;9.20;6.20;;;;;;;19.22;86.96;95562.02;108225;1272;22524;-76
2023/07/25 05:49:52;;;;;;;9.00;6.50;;;;;;;19.27;87.37;95558.17;108239;1272;22607;-76
2023/07/25 05:52:28;;;;;;;9.70;7.10;;;;;;;19.36;87.67;95551.80;108201;1279;25407;-76
2023/07/25 05:54:59;;;;;;;8.90;6.90;;;;;;;19.43;87.48;95552.39;108277;1279;22545;-76
2023/07/25 05:57:30;;;;;;;10.40;7.10;;;;;;;19.45;87.43;95552.72;108246;1272;22524;-76
2023/07/25 06:00:01;;;;;;;10.30;7.60;;;;;;;19.47;86.91;95559.44;108248;1279;22524;-76
2023/07/25 06:02:32;;;;;;;9.60;6.80;;;;;;;19.48;86.75;95567.29;108263;1279;24278;-76
2023/07/25 06:05:11;;;;;;;10.10;6.60;;;;;;;19.49;86.81;95564.98;108222;1276;22540;-76
2023/07/25 06:07:42;;;;;;;11.00;6.90;;;;;;;19.50;86.93;95567.54;108251;1276;24251;-76
2023/07/25 06:10:13;;;;;;;9.30;7.00;;;;;;;19.53;86.15;95572.83;108286;1279;25285;-76
2023/07/25 06:12:44;;;;;;;9.40;7.00;;;;;;;19.55;85.55;95565.66;108224;1279;22553;-76
2023/07/25 06:15:16;;;;;;;9.80;7.00;;;;;;;19.58;85.26;95570.62;108229;1279;22517;-76
2023/07/25 06:17:47;;;;;;;9.70;7.00;;;;;;;19.64;85.14;95572.70;108292;1271;22538;-76
2023/07/25 06:20:19;;;;;;;9.80;6.80;;;;;;;19.69;84.60;95569.14;108231;1277;23007;-76
2023/07/25 06:22:50;;;;;;;9.70;6.60;;;;;;;19.73;84.01;95575.07;108237;1279;24219;-76
2023/07/25 06:25:21;;;;;;;10.20;6.90;;;;;;;19.78;83.79;95574.98;108209;1279;22524;-76
2023/07/25 06:27:54;;;;;;;8.70;6.60;;;;;;;19.87;83.59;95574.73;108207;1271;24325;-76
2023/07/25 06:30:25;;;;;;;10.10;6.90;;;;;;;19.95;83.29;95564.06;108225;1277;22536;-76
2023/07/25 06:32:56;;;;;;;8.00;6.50;;;;;;;20.02;83.16;95567.64;108222;1268;22763;-76
2023/07/25 06:35:29;;;;;;;8.20;6.40;;;;;;;20.07;83.15;95583.68;108262;1276;22708;-76
2023/07/25 06:38:01;;;;;;;10.20;7.00;;;;;;;20.09;82.88;95587.94;108220;1279;22522;-76
2023/07/25 06:40:35;;;;;;;8.50;6.80;;;;;;;20.13;83.07;95584.16;108259;1271;22635;-76
2023/07/25 06:43:08;;;;;;;9.80;6.50;;;;;;;20.25;83.65;95583.47;108226;1272;24964;-76
2023/07/25 06:45:39;;;;;;;10.10;7.30;;;;;;;20.41;83.53;95576.67;108227;1279;25261;-76
2023/07/25 06:48:13;;;;;;;8.90;7.20;;;;;;;20.61;83.22;95573.15;108272;1278;22520;-76
2023/07/25 06:50:44;;;;;;;10.40;7.70;;;;;;;20.76;82.71;95573.55;108202;1279;22635;-76
2023/07/25 06:53:16;;;;;;;10.60;7.40;;;;;;;21.12;83.26;95568.05;108271;1280;22630;-76
2023/07/25 06:55:47;;;;;;;12.00;7.70;;;;;;;21.84;82.94;95558.23;108278;1272;22622;-76
2023/07/25 06:58:20;;;;;;;9.70;7.30;;;;;;;22.16;81.35;95556.52;108250;1279;25367;-76
2023/07/25 07:00:51;;;;;;;9.20;6.80;;;;;;;22.08;80.32;95555.55;108175;1277;25285;-76
2023/07/25 07:03:22;;;;;;;11.20;7.70;;;;;;;21.95;79.86;95554.99;108239;1272;22577;-76
2023/07/25 07:05:57;;;;;;;12.10;7.50;;;;;;;21.73;79.34;95553.86;108227;1269;22517;-76
2023/07/25 07:08:29;;;;;;;9.20;6.70;;;;;;;21.56;79.57;95558.45;108220;1272;25002;-76
2023/07/25 07:11:00;;;;;;;9.40;7.00;;;;;;;21.53;79.82;95558.56;108244;1272;22530;-76
2023/07/25 07:13:32;;;;;;;8.90;7.10;;;;;;;21.52;79.97;95548.99;108217;1278;22554;-76
2023/07/25 07:16:03;;;;;;;9.20;7.10;;;;;;;21.53;79.50;95543.55;108178;1279;25405;-76
2023/07/25 07:18:37;;;;;;;12.10;7.00;;;;;;;21.64;79.50;95543.78;108229;1276;22554;-76
2023/07/25 07:21:09;;;;;;;9.20;7.00;;;;;;;22.52;81.54;95546.70;108222;1279;24381;-76
2023/07/25 07:23:41;;;;;;;8.30;6.60;;;;;;;24.13;80.14;95539.23;108227;1272;23823;-76
2023/07/25 07:26:12;;;;;;;9.80;7.50;;;;;;;25.06;77.24;95533.72;108261;1279;24311;-76
2023/07/25 07:28:43;;;;;;;8.90;6.60;;;;;;;25.86;75.59;95526.94;108188;1279;22654;-76
2023/07/25 07:31:16;;;;;;;9.60;6.70;;;;;;;26.74;73.48;95526.11;108278;1279;22546;-76
2023/07/25 07:33:47;;;;;;;9.00;6.50;;;;;;;27.53;70.96;95524.02;108224;1272;22569;-76
2023/07/25 07:36:18;;;;;;;8.80;6.50;;;;;;;28.35;69.52;95520.51;108265;1280;22551;-76
2023/07/25 07:38:49;;;;;;;7.10;6.00;;;;;;;29.07;67.31;95511.89;108239;1279;22711;-76
2023/07/25 07:41:20;;;;;;;10.80;6.70;;;;;;;29.78;66.10;95501.70;108261;1279;22523;-76
2023/07/25 07:43:51;;;;;;;7.30;6.10;;;;;;;30.21;63.55;95500.58;108249;1277;22536;-76
2023/07/25 07:46:23;;;;;;;8.20;5.90;;;;;;;30.29;61.76;95507.52;108230;1278;26466;-76
2023/07/25 07:48:54;;;;;;;7.70;5.50;;;;;;;30.61;60.60;95515.91;108258;1276;22539;-76
2023/07/25 07:51:25;;;;;;;6.50;5.60;;;;;;;30.74;58.88;95518.53;108248;1280;22524;-76
2023/07/25 07:54:01;;;;;;;9.20;6.30;;;;;;;30.88;57.90;95509.67;108218;1273;23356;-77
2023/07/25 07:56:34;;;;;;;7.00;5.80;;;;;;;31.24;57.11;95510.05;108238;1262;24212;-76
2023/07/25 07:59:08;;;;;;;9.80;7.70;;;;;;;31.53;55.76;95516.23;108233;1273;22532;-77
2023/07/25 08:01:42;;;;;;;8.50;5.70;;;;;;;31.39;53.91;95518.34;108301;1280;22523;-77
2023/07/25 08:04:14;;;;;;;6.10;5.00;;;;;;;30.69;52.12;95507.86;108223;1279;22530;-77
2023/07/25 08:06:45;;;;;;;6.90;5.60;;;;;;;29.78;51.32;95513.57;108232;1280;22531;-77
2023/07/25 08:09:16;;;;;;;7.30;5.80;;;;;;;29.19;51.59;95518.17;108223;1272;22524;-76
2023/07/25 08:11:49;;;;;;;6.60;5.40;;;;;;;29.07;52.69;95523.06;108325;1279;23098;-76
2023/07/25 08:14:20;;;;;;;7.20;5.70;;;;;;;28.97;52.09;95515.65;108218;1279;22526;-76
2023/07/25 08:16:51;;;;;;;6.90;5.70;;;;;;;28.69;52.24;95503.54;108199;1278;22526;-77
2023/07/25 08:19:22;;;;;;;7.60;5.80;;;;;;;28.65;52.45;95491.55;108224;1280;22554;-76
2023/07/25 08:21:56;;;;;;;8.10;6.20;;;;;;;28.68;52.45;95480.67;108247;1279;25337;-77
2023/07/25 08:24:27;;;;;;;7.30;5.60;;;;;;;28.13;51.97;95475.52;108239;1279;22571;-77
2023/07/25 08:26:59;;;;;;;8.40;5.60;;;;;;;27.76;52.92;95475.70;108256;1280;22530;-77
2023/07/25 08:29:30;;;;;;;7.00;5.70;;;;;;;27.52;52.94;95484.75;108218;1279;24286;-77
2023/07/25 08:32:01;;;;;;;7.40;5.80;;;;;;;27.49;53.52;95486.89;108219;1279;22537;-77
2023/07/25 08:34:32;;;;;;;8.20;5.80;;;;;;;27.80;54.39;95489.46;108221;1280;23277;-77
2023/07/25 08:37:07;;;;;;;7.00;5.80;;;;;;;28.48;54.88;95480.46;108244;1272;25471;-76
2023/07/25 08:39:39;;;;;;;6.70;5.30;;;;;;;29.15;54.25;95475.86;108266;1279;23451;-76
2023/07/25 08:42:16;;;;;;;6.90;5.50;;;;;;;29.66;53.66;95479.99;108229;1273;22531;-77
2023/07/25 08:44:50;;;;;;;11.40;6.80;;;;;;;29.83;51.71;95481.27;108216;1279;22563;-77
2023/07/25 08:47:27;;;;;;;8.10;6.40;;;;;;;29.21;51.21;95489.37;108246;1272;23396;-77
2023/07/25 08:50:01;;;;;;;8.10;6.00;;;;;;;28.87;52.05;95492.85;108219;1279;22534;-77
2023/07/25 08:52:37;;;;;;;10.50;6.30;;;;;;;29.20;52.84;95480.41;108273;1279;25376;-77
2023/07/25 08:55:10;;;;;;;6.70;5.70;;;;;;;29.58;52.53;95482.15;108244;1276;24806;-77
2023/07/25 08:57:45;;;;;;;9.20;5.90;;;;;;;29.73;52.05;95476.23;108284;1279;22643;-76
2023/07/25 09:00:17;;;;;;;7.80;5.90;;;;;;;29.55;51.20;95466.16;108288;1279;22993;-77
2023/07/25 09:02:49;;;;;;;10.80;6.50;;;;;;;29.21;50.94;95462.45;108208;1278;22613;-76
2023/07/25 09:05:21;;;;;;;7.60;6.00;;;;;;;29.05;51.45;95457.85;108246;1278;22534;-77
2023/07/25 09:07:58;;;;;;;8.50;5.40;;;;;;;28.91;51.85;95458.88;108257;1272;22548;-76
2023/07/25 09:10:30;;;;;;;7.80;6.10;;;;;;;28.93;51.84;95458.52;108238;1278;22528;-76
2023/07/25 09:13:01;;;;;;;8.00;6.00;;;;;;;28.88;52.30;95456.20;108164;1279;26406;-77
2023/07/25 09:15:36;;;;;;;7.50;6.20;;;;;;;28.88;52.61;95457.86;108270;1279;22571;-76
2023/07/25 09:18:11;;;;;;;9.90;6.30;;;;;;;28.69;53.00;95459.34;108256;1272;22539;-76
2023/07/25 09:20:43;;;;;;;7.80;6.40;;;;;;;28.60;52.80;95450.11;108243;1279;22528;-77
2023/07/25 09:23:22;;;;;;;8.60;6.70;;;;;;;28.32;51.95;95451.65;108187;1273;23414;-77
2023/07/25 09:26:04;;;;;;;8.80;7.00;;;;;;;27.92;52.04;95453.85;108315;1279;22687;-77
2023/07/25 09:28:36;;;;;;;7.40;6.10;;;;;;;27.79;53.12;95447.87;108067;1278;22517;-77
2023/07/25 09:31:11;;;;;;;8.10;6.50;;;;;;;27.60;52.02;95453.43;108194;1279;22636;-76
2023/07/25 09:33:47;;;;;;;7.20;6.10;;;;;;;27.39;53.02;95447.79;108167;1278;22529;-77
2023/07/25 09:36:20;;;;;;;7.40;6.00;;;;;;;27.37;53.18;95438.80;108274;1280;22529;-76
2023/07/25 09:38:54;;;;;;;8.40;6.70;;;;;;;27.52;54.30;95445.38;108229;1278;22718;-77
2023/07/25 09:41:26;;;;;;;9.00;6.60;;;;;;;27.68;54.17;95448.45;108288;1279;22524;-77
2023/07/25 09:44:05;;;;;;;7.20;6.10;;;;;;;27.68;53.92;95438.33;108205;1272;22537;-77
2023/07/25 09:46:37;;;;;;;9.80;6.20;;;;;;;27.41;54.14;95441.92;108203;1279;25288;-77
2023/07/25 09:49:08;;;;;;;8.50;6.30;;;;;;;27.34;54.94;95446.72;108220;1279;24161;-77
2023/07/25 09:51:41;;;;;;;8.60;6.30;;;;;;;27.23;54.80;95451.63;108267;1279;22544;-77
2023/07/25 09:54:14;;;;;;;9.00;6.60;;;;;;;27.05;54.79;95451.55;108271;1279;22573;-77
2023/07/25 09:56:47;;;;;;;7.90;6.40;;;;;;;27.09;55.75;95450.70;108242;1279;22510;-77
2023/07/25 09:59:38;;;;;;;7.80;6.20;;;;;;;27.12;56.61;95447.69;108241;1279;22674;-76
2023/07/25 10:02:11;;;;;;;9.30;6.10;;;;;;;27.14;56.35;95450.75;108195;1279;22523;-77
2023/07/25 10:04:42;;;;;;;9.90;7.00;;;;;;;27.11;56.81;95448.64;108243;1279;22932;-77
2023/07/25 10:07:15;;;;;;;9.20;6.40;;;;;;;27.12;57.08;95454.08;108274;1276;23062;-76
2023/07/25 10:09:48;;;;;;;8.70;6.40;;;;;;;27.09;57.23;95449.31;108232;1273;22532;-76
2023/07/25 10:12:19;;;;;;;7.50;5.50;;;;;;;26.94;56.87;95438.64;108242;1279;25426;-77
2023/07/25 10:14:51;;;;;;;7.70;5.80;;;;;;;26.84;57.02;95434.04;108212;1279;25328;-76
2023/07/25 10:17:24;;;;;;;8.90;6.20;;;;;;;26.72;57.06;95436.25;108231;1279;22524;-77
2023/07/25 10:19:56;;;;;;;9.00;5.50;;;;;;;26.62;57.59;95437.17;108202;1279;26954;-77
2023/07/25 10:22:40;;;;;;;8.50;5.90;;;;;;;26.51;57.16;95445.33;108221;1279;22636;-77
2023/07/25 10:25:22;;;;;;;8.10;6.00;;;;;;;26.37;57.63;95447.06;108201;1280;22541;-77
2023/07/25 10:27:55;;;;;;;8.30;6.40;;;;;;;26.28;58.06;95441.64;108247;1277;22616;-77
2023/07/25 10:30:28;;;;;;;9.10;6.20;;;;;;;26.23;58.67;95437.91;108202;1277;22512;-77
2023/07/25 10:33:05;;;;;;;6.80;5.70;;;;;;;26.18;58.93;95438.52;108179;1279;25000;-77
2023/07/25 10:35:52;;;;;;;7.80;6.10;;;;;;;26.12;59.22;95441.23;108213;1280;22544;-77
2023/07/25 10:38:35;;;;;;;8.30;6.00;;;;;;;25.87;58.73;95435.01;108243;1278;25659;-77
2023/07/25 10:41:16;;;;;;;8.90;5.90;;;;;;;25.52;58.83;95431.17;108224;1277;22531;-77
2023/07/25 10:44:01;;;;;;;7.60;5.60;;;;;;;25.18;59.40;95427.23;108148;1277;22597;-77
2023/07/25 10:46:35;;;;;;;8.30;6.10;;;;;;;24.90;59.77;95431.94;108174;1279;22525;-77
2023/07/25 10:49:15;;;;;;;7.50;6.10;;;;;;;24.69;60.62;95436.35;108176;1273;23332;-77
2023/07/25 10:51:56;;;;;;;9.70;6.40;;;;;;;24.61;61.12;95429.05;108276;1278;25413;-77
2023/07/25 10:54:28;;;;;;;8.40;6.30;;;;;;;24.53;61.66;95422.06;108179;1277;24238;-77
2023/07/25 10:57:18;;;;;;;8.60;5.80;;;;;;;24.45;62.49;95413.05;108180;1279;22988;-77
2023/07/25 11:00:10;;;;;;;7.10;5.80;;;;;;;24.42;63.11;95412.84;108277;1279;22566;-77
2023/07/25 11:02:43;;;;;;;10.60;5.90;;;;;;;24.34;63.36;95412.34;108213;1272;24987;-77
2023/07/25 11:05:27;;;;;;;8.40;6.50;;;;;;;24.35;64.09;95409.09;108153;1279;23452;-77
2023/07/25 11:07:58;;;;;;;8.00;5.80;;;;;;;24.35;64.59;95404.58;108176;1279;22548;-77
2023/07/25 11:10:31;;;;;;;7.10;5.30;;;;;;;24.35;65.16;95397.48;108201;1279;25245;-77
2023/07/25 11:13:04;;;;;;;8.90;5.90;;;;;;;24.40;65.73;95395.83;108234;1279;22534;-77
2023/07/25 11:15:35;;;;;;;8.10;5.80;;;;;;;24.43;66.10;95397.42;108186;1272;25451;-77
2023/07/25 11:18:11;;;;;;;8.00;6.30;;;;;;;24.46;65.97;95397.55;108178;1279;22575;-77
2023/07/25 11:20:42;;;;;;;9.30;5.60;;;;;;;24.39;66.08;95388.88;108211;1276;22527;-77
2023/07/25 11:23:14;;;;;;;7.80;6.10;;;;;;;24.40;66.56;95387.09;108185;1280;22524;-77
2023/07/25 11:25:55;;;;;;;8.30;6.10;;;;;;;24.39;66.60;95387.86;108179;1276;22537;-77
2023/07/25 11:28:27;;;;;;;6.90;5.60;;;;;;;24.40;66.58;95391.03;108223;1273;24370;-77
2023/07/25 11:30:59;;;;;;;9.90;6.40;;;;;;;24.30;66.01;95379.23;108232;1279;24224;-77
2023/07/25 11:33:38;;;;;;;7.80;5.40;;;;;;;24.21;65.71;95371.84;108201;1279;22568;-77
2023/07/25 11:36:10;;;;;;;8.70;6.10;;;;;;;24.21;66.02;95364.88;108242;1279;25410;-77
2023/07/25 11:38:42;;;;;;;7.70;5.70;;;;;;;24.21;65.91;95349.48;108189;1273;22586;-77
2023/07/25 11:41:14;;;;;;;7.40;5.70;;;;;;;24.24;66.20;95335.07;108200;1279;22555;-77
2023/07/25 11:43:45;;;;;;;7.30;5.50;;;;;;;24.23;65.83;95329.20;108192;1277;22626;-77
2023/07/25 11:46:18;;;;;;;7.00;5.50;;;;;;;24.15;65.60;95322.28;108199;1277;22538;-77